• Join FlightAware (Why Join?)
  • Login
  • US Flag 
10:22PM EDT


 

Airport Tracker/Info


-or-


 

Live Flight TrackerFlight Track Log ✈ AWE88 ✈ 21-Apr-2012 ✈ KPHX - KPDX

Flight Track Log - Related Links

Times and Time Zones

All times are in EDT time to prevent confusion due to time zone crossing. See the AWE88 flight status page for this flight to view local times or setup timezone preferences in your user account.

Time Position Orientation Groundspeed Altitude Reporting Facility
EDT Latitude Longitude Course Direction KTS MPH feet Rate Location/Type
01:29PM 33.4531 -112.0369 103° East  Level FlightAware Approximate
01:30PM 33.5618 -112.0747 137° Southeast  Level FlightAware Approximate
01:31PM 33.4333 -111.9333 76° East 207 238 3,100  Level Phoenix TRACON
01:32PM 33.4500 -111.8500 54° Northeast 254 292 4,900 2,160 Climbing Phoenix TRACON
01:33PM 33.5000 -111.7667 29° Northeast 279 321 7,500 2,460 Climbing Phoenix TRACON
01:34PM 33.5500 -111.7333 311° West 292 336 9,900 1,800 Climbing Phoenix TRACON
01:36PM 33.6547 -111.8789 317° Northwest 339 390 12,800 1,740 Climbing Albuquerque Center
01:37PM 33.7306 -111.9653 314° West 349 402 15,100 2,340 Climbing Albuquerque Center
01:38PM 33.8083 -112.0619 315° West 360 414 17,500 2,100 Climbing Albuquerque Center
01:39PM 33.8739 -112.1408 315° West 365 420 19,400 1,800 Climbing Albuquerque Center
01:40PM 33.9575 -112.2431 314° West 377 434 21,200 1,560 Climbing Albuquerque Center
01:41PM 34.0250 -112.3275 332° Northwest 387 445 22,600 1,440 Climbing Albuquerque Center
01:42PM 34.1347 -112.3967 331° Northwest 395 455 24,100 1,380 Climbing Albuquerque Center
01:43PM 34.2261 -112.4575 332° Northwest 401 461 25,400 1,260 Climbing Albuquerque Center
01:44PM 34.3275 -112.5217 333° Northwest 406 467 26,700 1,200 Climbing Albuquerque Center
01:45PM 34.4311 -112.5861 333° Northwest 406 467 27,800 960 Climbing Albuquerque Center
01:46PM 34.5369 -112.6508 332° Northwest 411 473 28,700 900 Climbing Albuquerque Center
01:47PM 34.6464 -112.7208 318° Northwest 422 486 29,700 900 Climbing Albuquerque Center
01:48PM 34.7358 -112.8178 301° West 427 491 30,500 900 Climbing Albuquerque Center
01:49PM 34.7989 -112.9461 301° West 427 491 31,500 900 Climbing Albuquerque Center
01:50PM 34.8617 -113.0744 299° West 438 504 32,400 780 Climbing Albuquerque Center
01:51PM 34.9608 -113.2953 296° West 466 536 33,700 840 Climbing Los Angeles Center
01:52PM 35.0139 -113.4278 291° West 445 512 34,700 900 Climbing Los Angeles Center
01:53PM 35.0564 -113.5661 291° West 434 499 35,500 600 Climbing Los Angeles Center
01:54PM 35.0989 -113.7017 291° West 429 494 36,000 240 Climbing Los Angeles Center
01:55PM 35.1411 -113.8378 294° West 429 494 36,000  Level Los Angeles Center
01:56PM 35.1872 -113.9633 292° West 422 486 36,000  Level Los Angeles Center
01:57PM 35.2333 -114.1022 290° West 422 486 36,000  Level Los Angeles Center
01:58PM 35.2753 -114.2411 292° West 429 494 36,000  Level Los Angeles Center
01:59PM 35.3192 -114.3775 290° West 429 494 36,000  Level Los Angeles Center
02:00PM 35.3606 -114.5167 292° West 429 494 36,000  Level Los Angeles Center
02:01PM 35.4042 -114.6508 294° West 429 494 36,000  Level Los Angeles Center
02:02PM 35.4536 -114.7853 306° West 429 494 36,000  Level Los Angeles Center
02:03PM 35.5236 -114.9039 312° West 423 487 36,000  Level Los Angeles Center
02:04PM 35.6039 -115.0153 312° West 432 497 36,000  Level Los Angeles Center
02:05PM 35.6842 -115.1267 310° West 437 503 36,000  Level Los Angeles Center
02:06PM 35.7581 -115.2358 311° West 437 503 36,000  Level Los Angeles Center
02:07PM 35.8381 -115.3503 311° West 432 497 36,000  Level Los Angeles Center
02:08PM 35.9181 -115.4647 311° West 432 497 36,000  Level Los Angeles Center
02:09PM 35.9981 -115.5797 310° West 432 497 36,000  Level Los Angeles Center
02:10PM 36.0839 -115.7050 312° West 437 503 36,000  Level Los Angeles Center
02:11PM 36.1572 -115.8075 311° West 437 503 36,000  Level Los Angeles Center
02:12PM 36.2431 -115.9308 309° West 432 497 36,000  Level Los Angeles Center
02:13PM 36.3119 -116.0361 312° West 432 497 36,000  Level Los Angeles Center
02:14PM 36.3914 -116.1472 311° West 432 497 36,000  Level Los Angeles Center
02:15PM 36.4747 -116.2658 309° West 427 491 36,000  Level Los Angeles Center
02:16PM 36.5456 -116.3744 310° West 427 491 36,000  Level Los Angeles Center
02:17PM 36.6222 -116.4886 311° West 432 497 36,000  Level Los Angeles Center
02:18PM 36.7011 -116.6031 309° West 432 497 36,000  Level Los Angeles Center
02:19PM 36.7778 -116.7200 320° Northwest 432 497 36,000  Level Los Angeles Center
02:20PM 36.8692 -116.8169 323° Northwest 427 491 36,000  Level Los Angeles Center
02:22PM 37.0247 -116.9622 322° Northwest 434 499 36,000  Level Oakland Center
02:23PM 37.1217 -117.0558 324° Northwest 439 505 36,000  Level Oakland Center
02:24PM 37.2183 -117.1447 327° Northwest 439 505 36,000  Level Oakland Center
02:25PM 37.3192 -117.2283 326° Northwest 439 505 36,000  Level Oakland Center
02:26PM 37.4200 -117.3150 326° Northwest 439 505 36,000  Level Oakland Center
02:27PM 37.5208 -117.4017 325° Northwest 439 505 36,000  Level Oakland Center
02:28PM 37.6322 -117.4986 327° Northwest 439 505 36,000  Level Oakland Center
02:29PM 37.7347 -117.5831 325° Northwest 444 511 36,000  Level Oakland Center
02:30PM 37.8331 -117.6706 325° Northwest 444 511 36,000  Level Oakland Center
02:31PM 37.9358 -117.7608 326° Northwest 444 511 36,000  Level Oakland Center
02:32PM 38.0361 -117.8461 326° Northwest 444 511 36,000  Level Oakland Center
02:33PM 38.1364 -117.9317 327° Northwest 439 505 36,000  Level Oakland Center
02:34PM 38.2389 -118.0172 323° Northwest 439 505 36,000  Level Oakland Center
02:35PM 38.3328 -118.1061 325° Northwest 439 505 36,000  Level Oakland Center
02:36PM 38.4331 -118.1950 325° Northwest 431 496 36,000  Level Oakland Center
02:37PM 38.5331 -118.2842 325° Northwest 436 502 36,000  Level Oakland Center
02:38PM 38.6311 -118.3733 325° Northwest 436 502 36,000  Level Oakland Center
02:39PM 38.7308 -118.4631 326° Northwest 436 502 36,000  Level Oakland Center
02:40PM 38.8328 -118.5500 324° Northwest 436 502 36,000  Level Oakland Center
02:41PM 38.9200 -118.6300 325° Northwest 436 502 36,000  Level Oakland Center
02:42PM 39.0219 -118.7228 324° Northwest 436 502 36,000  Level Oakland Center
02:43PM 39.1175 -118.8136 328° Northwest 436 502 36,000  Level Oakland Center
02:44PM 39.2339 -118.9092 326° Northwest 451 519 36,000  Level Oakland Center
02:45PM 39.3228 -118.9872 325° Northwest 451 519 36,000  Level Oakland Center
02:46PM 39.4222 -119.0783 321° Northwest 446 513 36,000  Level Oakland Center
02:47PM 39.5178 -119.1781 325° Northwest 441 507 36,000  Level Oakland Center
02:48PM 39.6150 -119.2672 325° Northwest 441 507 36,000  Level Oakland Center
02:49PM 39.7142 -119.3567 325° Northwest 441 507 36,000  Level Oakland Center
02:50PM 39.8133 -119.4464 331° Northwest 441 507 36,000  Level Oakland Center
02:51PM 39.9228 -119.5253 332° Northwest 441 507 36,000  Level Oakland Center
02:52PM 40.0319 -119.6017 332° Northwest 441 507 36,000  Level Oakland Center
02:53PM 40.1475 -119.6833 331° Northwest 441 507 36,000  Level Oakland Center
02:54PM 40.2569 -119.7631 331° Northwest 436 502 36,000  Level Oakland Center
02:55PM 40.3639 -119.8403 332° Northwest 441 507 36,000  Level Oakland Center
02:56PM 40.4708 -119.9147 330° Northwest 441 507 36,000  Level Oakland Center
02:57PM 40.5819 -119.9978 331° Northwest 441 507 36,000  Level Oakland Center
02:57PM 40.6178 -120.0236 331° Northwest 443 510 36,000  Level Seattle Center
02:58PM 40.7256 -120.1019 331° Northwest 443 510 36,000  Level Seattle Center
02:59PM 40.8333 -120.1803 331° Northwest 443 510 36,000  Level Seattle Center
03:00PM 40.9619 -120.2758 331° Northwest 443 510 36,000  Level Seattle Center
03:01PM 41.0700 -120.3547 333° Northwest 443 510 36,000  Level Seattle Center
03:02PM 41.1839 -120.4322 330° Northwest 454 522 36,000  Level Seattle Center
03:04PM 41.2922 -120.5142 331° Northwest 451 519 36,000  Level Seattle Center
03:05PM 41.4008 -120.5950 331° Northwest 449 517 36,000  Level Seattle Center
03:06PM 41.5097 -120.6764 330° Northwest 449 517 36,000  Level Seattle Center
03:07PM 41.6158 -120.7575 331° Northwest 444 511 36,000  Level Seattle Center
03:08PM 41.7242 -120.8389 330° Northwest 446 513 36,000  Level Seattle Center
03:09PM 41.8303 -120.9200 331° Northwest 442 509 36,000  Level Seattle Center
03:10PM 41.9361 -121.0003 331° Northwest 440 506 36,000  Level Seattle Center
03:11PM 42.0631 -121.0961 330° Northwest 439 505 36,000  Level Seattle Center
03:12PM 42.1669 -121.1758 330° Northwest 435 501 36,000  Level Seattle Center
03:13PM 42.2756 -121.2597 330° Northwest 450 518 36,000  Level Seattle Center
03:14PM 42.3819 -121.3431 330° Northwest 448 516 36,000  Level Seattle Center
03:15PM 42.4883 -121.4250 332° Northwest 444 511 36,000  Level Seattle Center
03:16PM 42.5939 -121.5022 329° Northwest 439 505 36,000  Level Seattle Center
03:17PM 42.6989 -121.5872 331° Northwest 440 506 36,000  Level Seattle Center
03:18PM 42.8075 -121.6703 330° Northwest 446 513 36,000  Level Seattle Center
03:19PM 42.9350 -121.7722 329° Northwest 445 512 36,000  Level Seattle Center
03:20PM 43.0419 -121.8589 330° Northwest 448 516 36,000  Level Seattle Center
03:21PM 43.1489 -121.9428 330° Northwest 446 513 36,000  Level Seattle Center
03:22PM 43.2564 -122.0281 330° Northwest 447 514 36,000  Level Seattle Center
03:23PM 43.3683 -122.1153 330° Northwest 449 517 36,000  Level Seattle Center
03:24PM 43.4758 -122.2008 329° Northwest 448 516 36,000  Level Seattle Center
03:25PM 43.5814 -122.2889 330° Northwest 446 513 36,000 -120 Level Seattle Center
03:26PM 43.6883 -122.3742 330° Northwest 446 513 35,800 -1,140 Descending Seattle Center
03:27PM 43.7958 -122.4614 330° Northwest 447 514 33,700 -2,160 Descending Seattle Center
03:28PM 43.9025 -122.5481 329° Northwest 447 514 31,400 -2,520 Descending Seattle Center
03:29PM 44.0289 -122.6528 330° Northwest 445 512 28,600 -2,460 Descending Seattle Center
03:30PM 44.1344 -122.7381 359° North 442 509 26,400 -2,220 Descending Seattle Center
03:31PM 44.2575 -122.7397 North 450 518 24,100 -2,340 Descending Seattle Center
03:32PM 44.3819 -122.7294 North 452 520 21,700 -2,340 Descending Seattle Center
03:33PM 44.5044 -122.7161 North 449 517 19,400 -2,160 Descending Seattle Center
03:34PM 44.6236 -122.7047 North 441 507 17,400 -2,160 Descending Seattle Center
03:35PM 44.7131 -122.6922 North 415 478 15,700 -2,220 Descending Seattle Center
03:36PM 44.8064 -122.6872 North 392 451 14,000 -1,860 Descending Seattle Center
03:36PM 44.8439 -122.6836 North 406 467 13,300 -1,620 Descending Seattle Center
03:37PM 44.9097 -122.6775 North 377 434 12,400 -1,320 Descending Seattle Center
03:37PM 44.9628 -122.6725 North 375 432 12,000 -900 Descending Seattle Center
03:38PM 45.0019 -122.6672 North 331 381 11,500 -1,200 Descending Seattle Center
03:38PM 45.0503 -122.6614 North 333 383 10,800 -1,020 Descending Seattle Center
03:39PM 45.1358 -122.6531 North 317 365 10,000 -540 Descending Seattle Center
03:40PM 45.2192 -122.6439 North 307 353 9,800 -840 Descending Seattle Center
03:41PM 45.3019 -122.6353 357° North 303 349 8,300 -1,500 Descending Seattle Center
03:42PM 45.3819 -122.6408 327° Northwest 301 346 6,800 -1,680 Descending Seattle Center
03:43PM 45.4289 -122.6839 328° Northwest 283 326 5,700 -1,200 Descending Seattle Center
03:44PM 45.4933 -122.7403 321° Northwest 261 300 5,000 -360 Descending Seattle Center
03:45PM 45.5450 -122.7994 319° Northwest 234 269 5,000 -240 Level Seattle Center
03:46PM 45.5953 -122.8628 319° Northwest 224 258 4,500 -480 Descending Seattle Center
03:47PM 45.6392 -122.9169 19° North 211 243 4,000 -300 Descending Seattle Center
03:48PM 45.6744 -122.8997 84° East 205 236 4,000 -240 Level Seattle Center
03:48PM 45.6783 -122.8492 113° Southeast 198 228 3,700 -840 Descending Seattle Center
03:49PM 45.6594 -122.7864 113° Southeast 185 213 2,600 -1,140 Descending Seattle Center